sensor_id;sensor_type;location;lat;lon;timestamp;pressure;altitude;pressure_sealevel;temperature;humidity
26865;BME280;40618;51.166;10.322;2023-02-23T00:01:40;97019.59;;;7.50;83.62
26865;BME280;40618;51.166;10.322;2023-02-23T00:04:07;97016.25;;;7.46;83.87
26865;BME280;40618;51.166;10.322;2023-02-23T00:06:34;97013.66;;;7.46;83.94
26865;BME280;40618;51.166;10.322;2023-02-23T00:09:02;97010.25;;;7.45;84.02
26865;BME280;40618;51.166;10.322;2023-02-23T00:11:36;97013.72;;;7.44;83.90
26865;BME280;40618;51.166;10.322;2023-02-23T00:14:02;97017.13;;;7.47;84.01
26865;BME280;40618;51.166;10.322;2023-02-23T00:16:27;97020.59;;;7.44;83.45
26865;BME280;40618;51.166;10.322;2023-02-23T00:18:55;97020.69;;;7.39;84.10
26865;BME280;40618;51.166;10.322;2023-02-23T00:21:26;97012.97;;;7.39;84.42
26865;BME280;40618;51.166;10.322;2023-02-23T00:24:02;97017.34;;;7.37;83.37
26865;BME280;40618;51.166;10.322;2023-02-23T00:26:31;97017.38;;;7.36;84.12
26865;BME280;40618;51.166;10.322;2023-02-23T00:29:00;97018.22;;;7.36;83.93
26865;BME280;40618;51.166;10.322;2023-02-23T00:31:28;97013.94;;;7.35;83.64
26865;BME280;40618;51.166;10.322;2023-02-23T00:33:59;97008.91;;;7.31;84.53
26865;BME280;40618;51.166;10.322;2023-02-23T00:36:29;97016.72;;;7.27;84.57
26865;BME280;40618;51.166;10.322;2023-02-23T00:39:00;97019.38;;;7.23;84.24
26865;BME280;40618;51.166;10.322;2023-02-23T00:41:30;97012.56;;;7.22;84.07
26865;BME280;40618;51.166;10.322;2023-02-23T00:43:57;97022.84;;;7.22;84.38
26865;BME280;40618;51.166;10.322;2023-02-23T00:46:29;97019.38;;;7.23;83.66
26865;BME280;40618;51.166;10.322;2023-02-23T00:48:56;97015.97;;;7.22;84.35
26865;BME280;40618;51.166;10.322;2023-02-23T00:51:25;97015.06;;;7.25;84.33
26865;BME280;40618;51.166;10.322;2023-02-23T00:53:55;97014.19;;;7.24;84.13
26865;BME280;40618;51.166;10.322;2023-02-23T00:56:22;97021.03;;;7.25;83.95
26865;BME280;40618;51.166;10.322;2023-02-23T00:58:48;97016.75;;;7.24;83.73
26865;BME280;40618;51.166;10.322;2023-02-23T01:01:15;97016.06;;;7.19;83.83
26865;BME280;40618;51.166;10.322;2023-02-23T01:03:42;97025.56;;;7.16;83.70
26865;BME280;40618;51.166;10.322;2023-02-23T01:06:11;97021.25;;;7.16;83.58
26865;BME280;40618;51.166;10.322;2023-02-23T01:08:42;97018.72;;;7.15;83.57
26865;BME280;40618;51.166;10.322;2023-02-23T01:11:12;97013.66;;;7.11;84.09
26865;BME280;40618;51.166;10.322;2023-02-23T01:13:41;97023.06;;;7.13;84.38
26865;BME280;40618;51.166;10.322;2023-02-23T01:16:10;97023.97;;;7.10;83.93
26865;BME280;40618;51.166;10.322;2023-02-23T01:18:40;97023.16;;;7.09;84.21
26865;BME280;40618;51.166;10.322;2023-02-23T01:23:41;97029.25;;;7.05;84.06
26865;BME280;40618;51.166;10.322;2023-02-23T01:26:14;97023.31;;;7.02;83.64
26865;BME280;40618;51.166;10.322;2023-02-23T01:28:48;97020.84;;;6.95;83.83
26865;BME280;40618;51.166;10.322;2023-02-23T01:31:15;97026.09;;;6.92;83.77
26865;BME280;40618;51.166;10.322;2023-02-23T01:33:41;97014.09;;;6.93;83.90
26865;BME280;40618;51.166;10.322;2023-02-23T01:36:07;97014.91;;;6.93;83.88
26865;BME280;40618;51.166;10.322;2023-02-23T01:38:33;97020.09;;;6.92;84.10
26865;BME280;40618;51.166;10.322;2023-02-23T01:40:58;97013.25;;;6.91;83.90
26865;BME280;40618;51.166;10.322;2023-02-23T01:43:24;97016.78;;;6.87;83.34
26865;BME280;40618;51.166;10.322;2023-02-23T01:45:52;97014.31;;;6.82;83.76
26865;BME280;40618;51.166;10.322;2023-02-23T01:48:37;97011.94;;;6.73;84.12
26865;BME280;40618;51.166;10.322;2023-02-23T01:51:11;97005.97;;;6.71;83.69
26865;BME280;40618;51.166;10.322;2023-02-23T01:53:45;97004.28;;;6.70;83.95
26865;BME280;40618;51.166;10.322;2023-02-23T01:56:23;97006.88;;;6.70;84.08
26865;BME280;40618;51.166;10.322;2023-02-23T01:58:54;97012.81;;;6.72;83.79
26865;BME280;40618;51.166;10.322;2023-02-23T02:01:22;97006.84;;;6.71;84.05
26865;BME280;40618;51.166;10.322;2023-02-23T02:03:58;97000.06;;;6.67;83.77
26865;BME280;40618;51.166;10.322;2023-02-23T02:06:27;96998.38;;;6.66;84.22
26865;BME280;40618;51.166;10.322;2023-02-23T02:08:57;97005.22;;;6.67;83.91
26865;BME280;40618;51.166;10.322;2023-02-23T02:11:31;97002.66;;;6.66;84.03
26865;BME280;40618;51.166;10.322;2023-02-23T02:14:15;97007.81;;;6.64;84.20
26865;BME280;40618;51.166;10.322;2023-02-23T02:22:58;97000.09;;;6.66;83.73
26865;BME280;40618;51.166;10.322;2023-02-23T02:25:50;97001.91;;;6.60;83.93
26865;BME280;40618;51.166;10.322;2023-02-23T02:31:41;97000.44;;;6.49;84.00
26865;BME280;40618;51.166;10.322;2023-02-23T02:34:47;97001.34;;;6.46;84.28
26865;BME280;40618;51.166;10.322;2023-02-23T02:37:47;97009.03;;;6.48;84.21
26865;BME280;40618;51.166;10.322;2023-02-23T02:40:41;97013.22;;;6.52;83.82
26865;BME280;40618;51.166;10.322;2023-02-23T02:43:37;97008.91;;;6.54;84.02
26865;BME280;40618;51.166;10.322;2023-02-23T02:46:26;96994.25;;;6.57;83.89
26865;BME280;40618;51.166;10.322;2023-02-23T02:51:31;96998.47;;;6.62;84.08
26865;BME280;40618;51.166;10.322;2023-02-23T02:54:09;96993.34;;;6.60;84.17
26865;BME280;40618;51.166;10.322;2023-02-23T02:56:48;96992.50;;;6.59;83.82
26865;BME280;40618;51.166;10.322;2023-02-23T02:59:18;96999.38;;;6.59;84.17
26865;BME280;40618;51.166;10.322;2023-02-23T03:02:05;96991.63;;;6.60;84.19
26865;BME280;40618;51.166;10.322;2023-02-23T03:04:54;96999.28;;;6.64;84.36
26865;BME280;40618;51.166;10.322;2023-02-23T03:07:52;96989.09;;;6.59;83.98
26865;BME280;40618;51.166;10.322;2023-02-23T03:20:37;96988.38;;;6.52;83.73
26865;BME280;40618;51.166;10.322;2023-02-23T03:26:45;96994.50;;;6.45;84.08
26865;BME280;40618;51.166;10.322;2023-02-23T03:32:59;97000.66;;;6.38;84.14
26865;BME280;40618;51.166;10.322;2023-02-23T03:36:02;96991.25;;;6.37;84.57
26865;BME280;40618;51.166;10.322;2023-02-23T03:39:03;96998.94;;;6.40;83.90
26865;BME280;40618;51.166;10.322;2023-02-23T03:41:54;96998.88;;;6.41;84.16
26865;BME280;40618;51.166;10.322;2023-02-23T03:44:44;97003.16;;;6.42;84.04
26865;BME280;40618;51.166;10.322;2023-02-23T03:47:34;97004.00;;;6.43;84.16
26865;BME280;40618;51.166;10.322;2023-02-23T03:50:33;97001.38;;;6.44;84.61
26865;BME280;40618;51.166;10.322;2023-02-23T03:53:40;97001.38;;;6.44;84.26
26865;BME280;40618;51.166;10.322;2023-02-23T03:56:47;96999.69;;;6.43;83.84
26865;BME280;40618;51.166;10.322;2023-02-23T03:59:48;96998.03;;;6.41;84.29
26865;BME280;40618;51.166;10.322;2023-02-23T04:02:40;97001.41;;;6.43;84.39
26865;BME280;40618;51.166;10.322;2023-02-23T04:05:28;97002.34;;;6.40;84.04
26865;BME280;40618;51.166;10.322;2023-02-23T04:08:17;96998.06;;;6.39;84.42
26865;BME280;40618;51.166;10.322;2023-02-23T04:11:19;96995.56;;;6.36;84.18
26865;BME280;40618;51.166;10.322;2023-02-23T04:14:28;96998.09;;;6.38;84.16
26865;BME280;40618;51.166;10.322;2023-02-23T04:17:01;96996.38;;;6.37;84.43
26865;BME280;40618;51.166;10.322;2023-02-23T04:19:29;97000.69;;;6.36;84.29
26865;BME280;40618;51.166;10.322;2023-02-23T04:21:55;97002.41;;;6.37;84.27
26865;BME280;40618;51.166;10.322;2023-02-23T04:24:20;96996.38;;;6.37;84.06
26865;BME280;40618;51.166;10.322;2023-02-23T04:26:46;96998.16;;;6.35;84.31
26865;BME280;40618;51.166;10.322;2023-02-23T04:29:12;96996.44;;;6.35;84.61
26865;BME280;40618;51.166;10.322;2023-02-23T04:31:37;97003.31;;;6.35;84.57
26865;BME280;40618;51.166;10.322;2023-02-23T04:34:03;97003.25;;;6.38;84.41
26865;BME280;40618;51.166;10.322;2023-02-23T04:36:29;97004.97;;;6.37;84.67
26865;BME280;40618;51.166;10.322;2023-02-23T04:38:55;97006.69;;;6.38;84.62
26865;BME280;40618;51.166;10.322;2023-02-23T04:41:21;97003.19;;;6.39;84.06
26865;BME280;40618;51.166;10.322;2023-02-23T04:43:48;97006.69;;;6.37;84.02
26865;BME280;40618;51.166;10.322;2023-02-23T04:46:13;97009.34;;;6.32;84.40
26865;BME280;40618;51.166;10.322;2023-02-23T04:48:39;97008.53;;;6.32;84.03
26865;BME280;40618;51.166;10.322;2023-02-23T04:51:05;97000.78;;;6.33;84.10
26865;BME280;40618;51.166;10.322;2023-02-23T04:53:30;97011.06;;;6.33;84.55
26865;BME280;40618;51.166;10.322;2023-02-23T04:55:56;97004.25;;;6.31;83.94
26865;BME280;40618;51.166;10.322;2023-02-23T04:58:22;97006.88;;;6.28;84.28
26865;BME280;40618;51.166;10.322;2023-02-23T05:00:47;97003.44;;;6.27;84.55
26865;BME280;40618;51.166;10.322;2023-02-23T05:03:14;97006.81;;;6.31;84.38
26865;BME280;40618;51.166;10.322;2023-02-23T05:05:41;97005.03;;;6.33;84.38
26865;BME280;40618;51.166;10.322;2023-02-23T05:08:08;96999.06;;;6.32;84.17
26865;BME280;40618;51.166;10.322;2023-02-23T05:10:34;97011.94;;;6.32;85.05
26865;BME280;40618;51.166;10.322;2023-02-23T05:13:00;97014.44;;;6.35;84.93
26865;BME280;40618;51.166;10.322;2023-02-23T05:15:26;97009.28;;;6.35;84.36
26865;BME280;40618;51.166;10.322;2023-02-23T05:17:53;97021.28;;;6.36;84.67
26865;BME280;40618;51.166;10.322;2023-02-23T05:20:20;97012.69;;;6.37;84.48
26865;BME280;40618;51.166;10.322;2023-02-23T05:22:46;97017.75;;;6.40;85.01
26865;BME280;40618;51.166;10.322;2023-02-23T05:25:12;97020.28;;;6.42;84.83
26865;BME280;40618;51.166;10.322;2023-02-23T05:27:38;97015.09;;;6.45;84.67
26865;BME280;40618;51.166;10.322;2023-02-23T05:30:05;97017.66;;;6.45;84.56
26865;BME280;40618;51.166;10.322;2023-02-23T05:32:32;97017.66;;;6.47;84.26
26865;BME280;40618;51.166;10.322;2023-02-23T05:34:59;97015.91;;;6.47;84.74
26865;BME280;40618;51.166;10.322;2023-02-23T05:37:25;97010.81;;;6.46;84.34
26865;BME280;40618;51.166;10.322;2023-02-23T05:39:50;97017.66;;;6.45;84.50
26865;BME280;40618;51.166;10.322;2023-02-23T05:42:16;97016.78;;;6.46;84.71
26865;BME280;40618;51.166;10.322;2023-02-23T05:44:42;97018.47;;;6.47;84.83
26865;BME280;40618;51.166;10.322;2023-02-23T05:47:07;97019.38;;;6.44;84.91
26865;BME280;40618;51.166;10.322;2023-02-23T05:49:35;97015.13;;;6.43;84.94
26865;BME280;40618;51.166;10.322;2023-02-23T05:52:00;97017.66;;;6.45;84.50
26865;BME280;40618;51.166;10.322;2023-02-23T05:54:26;97014.22;;;6.46;84.61
26865;BME280;40618;51.166;10.322;2023-02-23T05:56:51;97012.50;;;6.47;84.71
26865;BME280;40618;51.166;10.322;2023-02-23T05:59:17;97018.59;;;6.42;84.41
26865;BME280;40618;51.166;10.322;2023-02-23T06:01:43;97014.31;;;6.41;84.72
26865;BME280;40618;51.166;10.322;2023-02-23T06:04:08;97017.69;;;6.43;84.83
26865;BME280;40618;51.166;10.322;2023-02-23T06:06:34;97016.81;;;6.44;84.76
26865;BME280;40618;51.166;10.322;2023-02-23T06:09:00;97014.25;;;6.44;84.25
26865;BME280;40618;51.166;10.322;2023-02-23T06:11:29;97025.38;;;6.47;84.78
26865;BME280;40618;51.166;10.322;2023-02-23T06:13:57;97017.66;;;6.45;84.70
26865;BME280;40618;51.166;10.322;2023-02-23T06:16:24;97022.78;;;6.45;84.61
26865;BME280;40618;51.166;10.322;2023-02-23T06:18:50;97025.38;;;6.45;85.24
26865;BME280;40618;51.166;10.322;2023-02-23T06:21:15;97024.53;;;6.44;85.21
26865;BME280;40618;51.166;10.322;2023-02-23T06:23:41;97029.75;;;6.41;84.77
26865;BME280;40618;51.166;10.322;2023-02-23T06:26:07;97029.03;;;6.35;85.07
26865;BME280;40618;51.166;10.322;2023-02-23T06:28:32;97023.09;;;6.31;84.95
26865;BME280;40618;51.166;10.322;2023-02-23T06:30:58;97036.78;;;6.33;84.82
26865;BME280;40618;51.166;10.322;2023-02-23T06:33:24;97033.25;;;6.37;84.94
26865;BME280;40618;51.166;10.322;2023-02-23T06:35:50;97041.78;;;6.39;85.09
26865;BME280;40618;51.166;10.322;2023-02-23T06:38:17;97032.31;;;6.41;85.21
26865;BME280;40618;51.166;10.322;2023-02-23T06:40:43;97034.97;;;6.38;84.99
26865;BME280;40618;51.166;10.322;2023-02-23T06:43:09;97040.06;;;6.40;85.36
26865;BME280;40618;51.166;10.322;2023-02-23T06:45:35;97039.19;;;6.39;85.04
26865;BME280;40618;51.166;10.322;2023-02-23T06:48:00;97035.75;;;6.40;84.83
26865;BME280;40618;51.166;10.322;2023-02-23T06:50:26;97047.78;;;6.40;84.68
26865;BME280;40618;51.166;10.322;2023-02-23T06:52:52;97052.06;;;6.39;85.11
26865;BME280;40618;51.166;10.322;2023-02-23T06:55:17;97051.31;;;6.36;84.71
26865;BME280;40618;51.166;10.322;2023-02-23T06:57:43;97052.13;;;6.36;84.87
26865;BME280;40618;51.166;10.322;2023-02-23T07:00:10;97048.69;;;6.37;84.71
26865;BME280;40618;51.166;10.322;2023-02-23T07:02:39;97046.94;;;6.38;85.22
26865;BME280;40618;51.166;10.322;2023-02-23T07:05:06;97052.06;;;6.39;85.08
26865;BME280;40618;51.166;10.322;2023-02-23T07:07:32;97055.50;;;6.40;85.03
26865;BME280;40618;51.166;10.322;2023-02-23T07:09:58;97053.81;;;6.39;84.86
26865;BME280;40618;51.166;10.322;2023-02-23T07:12:24;97064.91;;;6.39;85.09
26865;BME280;40618;51.166;10.322;2023-02-23T07:14:49;97059.78;;;6.39;84.96
26865;BME280;40618;51.166;10.322;2023-02-23T07:17:15;97060.63;;;6.41;85.06
26865;BME280;40618;51.166;10.322;2023-02-23T07:19:42;97065.69;;;6.44;85.36
26865;BME280;40618;51.166;10.322;2023-02-23T07:22:07;97061.38;;;6.45;84.84
26865;BME280;40618;51.166;10.322;2023-02-23T07:24:33;97069.09;;;6.47;85.42
26865;BME280;40618;51.166;10.322;2023-02-23T07:26:59;97067.34;;;6.47;84.96
26865;BME280;40618;51.166;10.322;2023-02-23T07:29:24;97072.47;;;6.49;85.28
26865;BME280;40618;51.166;10.322;2023-02-23T07:31:52;97072.41;;;6.52;85.44
26865;BME280;40618;51.166;10.322;2023-02-23T07:34:18;97074.09;;;6.53;85.44
26865;BME280;40618;51.166;10.322;2023-02-23T07:36:44;97078.38;;;6.54;85.28
26865;BME280;40618;51.166;10.322;2023-02-23T07:39:09;97079.22;;;6.54;85.35
26865;BME280;40618;51.166;10.322;2023-02-23T07:41:35;97078.38;;;6.54;84.83
26865;BME280;40618;51.166;10.322;2023-02-23T07:44:00;97080.94;;;6.54;85.50
26865;BME280;40618;51.166;10.322;2023-02-23T07:46:26;97081.81;;;6.53;84.96
26865;BME280;40618;51.166;10.322;2023-02-23T07:48:52;97079.16;;;6.56;85.19
26865;BME280;40618;51.166;10.322;2023-02-23T07:51:18;97071.41;;;6.57;85.12
26865;BME280;40618;51.166;10.322;2023-02-23T07:53:44;97078.22;;;6.60;85.13
26865;BME280;40618;51.166;10.322;2023-02-23T07:56:10;97073.03;;;6.63;85.24
26865;BME280;40618;51.166;10.322;2023-02-23T07:58:41;97072.09;;;6.67;85.30
26865;BME280;40618;51.166;10.322;2023-02-23T08:01:08;97070.25;;;6.72;85.18
26865;BME280;40618;51.166;10.322;2023-02-23T08:03:35;97066.75;;;6.76;85.83
26865;BME280;40618;51.166;10.322;2023-02-23T08:06:01;97066.75;;;6.78;85.22
26865;BME280;40618;51.166;10.322;2023-02-23T08:08:27;97074.38;;;6.81;85.58
26865;BME280;40618;51.166;10.322;2023-02-23T08:11:01;97076.06;;;6.84;85.10
26865;BME280;40618;51.166;10.322;2023-02-23T08:13:28;97071.78;;;6.83;85.22
26865;BME280;40618;51.166;10.322;2023-02-23T08:15:55;97073.47;;;6.84;85.36
26865;BME280;40618;51.166;10.322;2023-02-23T08:18:21;97076.91;;;6.83;84.81
26865;BME280;40618;51.166;10.322;2023-02-23T08:20:47;97076.09;;;6.81;84.79
26865;BME280;40618;51.166;10.322;2023-02-23T08:23:12;97070.97;;;6.79;85.35
26865;BME280;40618;51.166;10.322;2023-02-23T08:25:38;97068.41;;;6.79;85.17
26865;BME280;40618;51.166;10.322;2023-02-23T08:28:04;97078.66;;;6.81;85.11
26865;BME280;40618;51.166;10.322;2023-02-23T08:30:32;97077.81;;;6.80;85.89
26865;BME280;40618;51.166;10.322;2023-02-23T08:32:58;97077.75;;;6.83;85.51
26865;BME280;40618;51.166;10.322;2023-02-23T08:35:25;97078.56;;;6.87;86.10
26865;BME280;40618;51.166;10.322;2023-02-23T08:37:52;97082.75;;;6.91;85.75
26865;BME280;40618;51.166;10.322;2023-02-23T08:40:18;97084.34;;;6.97;86.28
26865;BME280;40618;51.166;10.322;2023-02-23T08:42:45;97087.63;;;7.03;85.63
26865;BME280;40618;51.166;10.322;2023-02-23T08:45:13;97081.50;;;7.09;85.64
26865;BME280;40618;51.166;10.322;2023-02-23T08:47:39;97077.13;;;7.13;86.00
26865;BME280;40618;51.166;10.322;2023-02-23T08:50:05;97072.75;;;7.16;85.25
26865;BME280;40618;51.166;10.322;2023-02-23T08:52:31;97080.44;;;7.19;86.08
26865;BME280;40618;51.166;10.322;2023-02-23T08:54:57;97086.41;;;7.20;85.54
26865;BME280;40618;51.166;10.322;2023-02-23T08:57:22;97085.53;;;7.21;85.50
26865;BME280;40618;51.166;10.322;2023-02-23T08:59:48;97090.56;;;7.25;85.79
26865;BME280;40618;51.166;10.322;2023-02-23T09:02:14;97086.13;;;7.32;86.13
26865;BME280;40618;51.166;10.322;2023-02-23T09:04:40;97086.00;;;7.38;85.54
26865;BME280;40618;51.166;10.322;2023-02-23T09:07:07;97085.00;;;7.44;85.26
26865;BME280;40618;51.166;10.322;2023-02-23T09:09:33;97090.88;;;7.51;86.24
26865;BME280;40618;51.166;10.322;2023-02-23T09:11:59;97084.72;;;7.56;85.83
26865;BME280;40618;51.166;10.322;2023-02-23T09:14:25;97082.00;;;7.61;86.08
26865;BME280;40618;51.166;10.322;2023-02-23T09:16:52;97081.88;;;7.67;86.41
26865;BME280;40618;51.166;10.322;2023-02-23T09:19:17;97091.19;;;7.73;86.20
26865;BME280;40618;51.166;10.322;2023-02-23T09:21:44;97086.81;;;7.76;86.10
26865;BME280;40618;51.166;10.322;2023-02-23T09:24:10;97079.09;;;7.75;85.77
26865;BME280;40618;51.166;10.322;2023-02-23T09:26:35;97084.28;;;7.73;85.90
26865;BME280;40618;51.166;10.322;2023-02-23T09:29:05;97080.88;;;7.73;85.26
26865;BME280;40618;51.166;10.322;2023-02-23T09:31:31;97086.81;;;7.75;85.25
26865;BME280;40618;51.166;10.322;2023-02-23T09:33:57;97085.16;;;7.74;85.91
26865;BME280;40618;51.166;10.322;2023-02-23T09:36:25;97099.69;;;7.76;85.97
26865;BME280;40618;51.166;10.322;2023-02-23T09:38:54;97093.41;;;7.87;86.26
26865;BME280;40618;51.166;10.322;2023-02-23T09:43:57;97093.28;;;7.93;85.79
26865;BME280;40618;51.166;10.322;2023-02-23T09:46:42;97095.00;;;7.92;85.35
26865;BME280;40618;51.166;10.322;2023-02-23T09:49:16;97097.66;;;7.89;85.84
26865;BME280;40618;51.166;10.322;2023-02-23T09:51:51;97101.09;;;7.88;85.47
26865;BME280;40618;51.166;10.322;2023-02-23T09:54:23;97111.59;;;7.82;85.68
26865;BME280;40618;51.166;10.322;2023-02-23T09:56:52;97104.81;;;7.78;86.00
26865;BME280;40618;51.166;10.322;2023-02-23T09:59:21;97102.28;;;7.76;85.48
26865;BME280;40618;51.166;10.322;2023-02-23T10:04:22;97102.41;;;7.70;85.28
26865;BME280;40618;51.166;10.322;2023-02-23T10:20:55;97105.03;;;7.69;85.18
26865;BME280;40618;51.166;10.322;2023-02-23T10:23:53;97108.47;;;7.68;86.01
26865;BME280;40618;51.166;10.322;2023-02-23T10:26:27;97109.31;;;7.70;85.71
26865;BME280;40618;51.166;10.322;2023-02-23T10:31:50;97102.38;;;7.72;85.59
26865;BME280;40618;51.166;10.322;2023-02-23T10:34:22;97104.94;;;7.72;85.52
26865;BME280;40618;51.166;10.322;2023-02-23T10:36:57;97115.22;;;7.73;85.82
26865;BME280;40618;51.166;10.322;2023-02-23T10:39:27;97108.41;;;7.72;85.51
26865;BME280;40618;51.166;10.322;2023-02-23T10:41:57;97104.94;;;7.72;85.24
26865;BME280;40618;51.166;10.322;2023-02-23T10:44:28;97107.44;;;7.75;85.70
26865;BME280;40618;51.166;10.322;2023-02-23T10:46:58;97106.53;;;7.77;85.45
26865;BME280;40618;51.166;10.322;2023-02-23T10:49:40;97105.66;;;7.78;86.05
26865;BME280;40618;51.166;10.322;2023-02-23T10:52:18;97107.31;;;7.81;85.72
26865;BME280;40618;51.166;10.322;2023-02-23T10:54:50;97116.69;;;7.84;85.38
26865;BME280;40618;51.166;10.322;2023-02-23T11:02:43;97112.28;;;7.89;85.97
26865;BME280;40618;51.166;10.322;2023-02-23T11:11:07;97109.50;;;7.96;85.82
26865;BME280;40618;51.166;10.322;2023-02-23T11:13:48;97102.66;;;7.95;85.36
26865;BME280;40618;51.166;10.322;2023-02-23T11:16:36;97095.78;;;7.96;85.26
26865;BME280;40618;51.166;10.322;2023-02-23T11:19:04;97092.31;;;7.97;85.45
26865;BME280;40618;51.166;10.322;2023-02-23T11:21:37;97091.34;;;8.01;86.01
26865;BME280;40618;51.166;10.322;2023-02-23T11:24:25;97086.75;;;8.12;85.92
26865;BME280;40618;51.166;10.322;2023-02-23T11:26:57;97089.00;;;8.25;86.51
26865;BME280;40618;51.166;10.322;2023-02-23T11:29:34;97089.69;;;8.32;86.44
26865;BME280;40618;51.166;10.322;2023-02-23T11:34:40;97084.03;;;8.50;86.92
26865;BME280;40618;51.166;10.322;2023-02-23T11:37:18;97081.31;;;8.56;85.80
26865;BME280;40618;51.166;10.322;2023-02-23T11:39:59;97083.88;;;8.56;85.53
26865;BME280;40618;51.166;10.322;2023-02-23T11:42:29;97079.53;;;8.58;85.60
26865;BME280;40618;51.166;10.322;2023-02-23T11:45:14;97082.06;;;8.60;85.68
26865;BME280;40618;51.166;10.322;2023-02-23T11:47:53;97079.59;;;8.55;85.92
26865;BME280;40618;51.166;10.322;2023-02-23T11:50:24;97076.31;;;8.50;86.25
26865;BME280;40618;51.166;10.322;2023-02-23T11:53:30;97070.53;;;8.40;85.82
26865;BME280;40618;51.166;10.322;2023-02-23T11:56:01;97071.50;;;8.36;85.25
26865;BME280;40618;51.166;10.322;2023-02-23T11:58:41;97075.81;;;8.36;85.35
26865;BME280;40618;51.166;10.322;2023-02-23T12:01:11;97070.72;;;8.34;85.34
26865;BME280;40618;51.166;10.322;2023-02-23T12:03:46;97066.44;;;8.33;86.17
26865;BME280;40618;51.166;10.322;2023-02-23T12:06:30;97069.84;;;8.34;85.50
26865;BME280;40618;51.166;10.322;2023-02-23T12:11:59;97066.22;;;8.41;85.74
26865;BME280;40618;51.166;10.322;2023-02-23T12:14:43;97062.75;;;8.42;85.54
26865;BME280;40618;51.166;10.322;2023-02-23T12:17:22;97060.09;;;8.46;85.67
26865;BME280;40618;51.166;10.322;2023-02-23T12:19:57;97053.84;;;8.54;85.81
26865;BME280;40618;51.166;10.322;2023-02-23T12:22:32;97052.88;;;8.58;85.56
26865;BME280;40618;51.166;10.322;2023-02-23T12:25:26;97053.75;;;8.57;85.71
26865;BME280;40618;51.166;10.322;2023-02-23T12:28:38;97052.00;;;8.59;86.09
26865;BME280;40618;51.166;10.322;2023-02-23T12:31:19;97053.63;;;8.61;86.27
26865;BME280;40618;51.166;10.322;2023-02-23T12:34:25;97060.56;;;8.59;85.97
26865;BME280;40618;51.166;10.322;2023-02-23T12:42:57;97058.09;;;8.56;86.15
26865;BME280;40618;51.166;10.322;2023-02-23T12:45:41;97056.34;;;8.57;86.01
26865;BME280;40618;51.166;10.322;2023-02-23T12:51:04;97046.72;;;8.62;84.98
26865;BME280;40618;51.166;10.322;2023-02-23T12:53:44;97047.56;;;8.64;85.36
26865;BME280;40618;51.166;10.322;2023-02-23T13:00:03;97050.91;;;8.66;85.63
26865;BME280;40618;51.166;10.322;2023-02-23T13:02:28;97049.22;;;8.65;85.55
26865;BME280;40618;51.166;10.322;2023-02-23T13:05:21;97045.69;;;8.68;85.42
26865;BME280;40618;51.166;10.322;2023-02-23T13:16:51;97037.78;;;8.74;85.97
26865;BME280;40618;51.166;10.322;2023-02-23T13:22:27;97040.47;;;8.71;85.78
26865;BME280;40618;51.166;10.322;2023-02-23T13:25:01;97034.50;;;8.69;85.68
26865;BME280;40618;51.166;10.322;2023-02-23T13:27:35;97036.25;;;8.68;85.38
26865;BME280;40618;51.166;10.322;2023-02-23T13:30:10;97035.44;;;8.66;85.09
26865;BME280;40618;51.166;10.322;2023-02-23T13:32:37;97028.56;;;8.65;85.09
26865;BME280;40618;51.166;10.322;2023-02-23T13:35:12;97031.13;;;8.67;85.58
26865;BME280;40618;51.166;10.322;2023-02-23T13:37:53;97033.66;;;8.68;85.92
26865;BME280;40618;51.166;10.322;2023-02-23T13:43:02;97031.88;;;8.70;85.13
26865;BME280;40618;51.166;10.322;2023-02-23T13:48:43;97031.09;;;8.68;85.47
26865;BME280;40618;51.166;10.322;2023-02-23T13:57:01;97031.09;;;8.68;85.39
26865;BME280;40618;51.166;10.322;2023-02-23T13:59:41;97026.59;;;8.73;85.26
26865;BME280;40618;51.166;10.322;2023-02-23T14:02:38;97027.28;;;8.80;85.17
26865;BME280;40618;51.166;10.322;2023-02-23T14:05:17;97024.47;;;8.88;85.63
26865;BME280;40618;51.166;10.322;2023-02-23T14:07:47;97024.38;;;8.91;85.89
26865;BME280;40618;51.166;10.322;2023-02-23T14:20:55;97016.56;;;8.94;85.67
26865;BME280;40618;51.166;10.322;2023-02-23T14:26:34;97022.31;;;9.02;85.86
26865;BME280;40618;51.166;10.322;2023-02-23T14:29:22;97018.66;;;9.09;85.86
26865;BME280;40618;51.166;10.322;2023-02-23T14:31:57;97014.28;;;9.11;85.46
26865;BME280;40618;51.166;10.322;2023-02-23T14:34:45;97016.78;;;9.14;85.16
26865;BME280;40618;51.166;10.322;2023-02-23T14:40:22;97013.22;;;9.17;85.44
26865;BME280;40618;51.166;10.322;2023-02-23T14:42:57;97010.69;;;9.15;85.38
26865;BME280;40618;51.166;10.322;2023-02-23T14:45:37;97010.69;;;9.15;85.52
26865;BME280;40618;51.166;10.322;2023-02-23T14:48:11;97011.56;;;9.16;85.40
26865;BME280;40618;51.166;10.322;2023-02-23T14:50:37;97012.41;;;9.17;85.20
26865;BME280;40618;51.166;10.322;2023-02-23T14:53:10;97013.22;;;9.19;85.13
26865;BME280;40618;51.166;10.322;2023-02-23T14:55:42;97017.56;;;9.17;84.97
26865;BME280;40618;51.166;10.322;2023-02-23T14:58:39;97018.50;;;9.14;84.90
26865;BME280;40618;51.166;10.322;2023-02-23T15:01:04;97009.97;;;9.12;84.95
26865;BME280;40618;51.166;10.322;2023-02-23T15:03:30;97004.94;;;9.07;84.70
26865;BME280;40618;51.166;10.322;2023-02-23T15:05:58;97007.50;;;9.07;85.08
26865;BME280;40618;51.166;10.322;2023-02-23T15:08:27;97003.28;;;9.05;84.83
26865;BME280;40618;51.166;10.322;2023-02-23T15:11:03;97004.19;;;9.04;85.10
26865;BME280;40618;51.166;10.322;2023-02-23T15:13:39;97006.84;;;9.02;84.86
26865;BME280;40618;51.166;10.322;2023-02-23T15:16:17;97004.25;;;9.02;84.95
26865;BME280;40618;51.166;10.322;2023-02-23T15:18:50;97004.25;;;9.02;84.59
26865;BME280;40618;51.166;10.322;2023-02-23T15:21:19;97005.13;;;9.01;85.11
26865;BME280;40618;51.166;10.322;2023-02-23T15:23:49;97002.59;;;9.00;84.14
26865;BME280;40618;51.166;10.322;2023-02-23T15:29:03;97011.09;;;9.03;84.72
26865;BME280;40618;51.166;10.322;2023-02-23T15:31:30;97011.09;;;9.03;84.18
26865;BME280;40618;51.166;10.322;2023-02-23T15:33:55;97012.78;;;9.04;84.79